createdAt,value
2022-12-17T00:00:28.419Z,10.20
2022-12-17T00:05:48.171Z,10.83
2022-12-17T00:11:08.227Z,9.70
2022-12-17T00:16:28.475Z,9.67
2022-12-17T00:21:48.446Z,8.70
2022-12-17T00:27:08.564Z,9.90
2022-12-17T00:32:28.664Z,9.23
2022-12-17T00:37:48.746Z,8.50
2022-12-17T00:43:08.803Z,9.40
2022-12-17T00:48:29.954Z,8.73
2022-12-17T00:53:50.274Z,9.23
2022-12-17T00:59:10.470Z,9.50
2022-12-17T01:04:30.506Z,8.40
2022-12-17T01:09:50.533Z,8.53
2022-12-17T01:15:10.725Z,8.87
2022-12-17T01:20:30.845Z,8.60
2022-12-17T01:25:51.008Z,9.23
2022-12-17T01:31:12.006Z,8.47
2022-12-17T01:36:32.128Z,8.33
2022-12-17T01:41:52.337Z,8.40
2022-12-17T01:47:12.483Z,8.07
2022-12-17T01:52:32.655Z,8.13
2022-12-17T01:57:52.892Z,7.53
2022-12-17T02:03:12.957Z,8.83
2022-12-17T02:08:33.098Z,8.50
2022-12-17T02:13:53.160Z,8.90
2022-12-17T02:19:13.417Z,8.60
2022-12-17T02:24:33.531Z,7.90
2022-12-17T02:29:53.829Z,8.83
2022-12-17T02:35:16.500Z,7.87
2022-12-17T02:40:36.647Z,8.80
2022-12-17T02:45:56.919Z,8.43
2022-12-17T02:51:17.039Z,7.67
2022-12-17T02:56:37.188Z,7.97
2022-12-17T03:01:57.528Z,8.30
2022-12-17T03:07:17.451Z,8.23
2022-12-17T03:12:37.623Z,8.00
2022-12-17T03:17:57.791Z,7.47
2022-12-17T03:23:17.930Z,7.67
2022-12-17T03:28:37.943Z,8.77
2022-12-17T03:33:58.009Z,7.93
2022-12-17T03:39:18.114Z,7.93
2022-12-17T03:44:38.283Z,8.40
2022-12-17T03:49:58.413Z,7.30
2022-12-17T03:55:18.660Z,7.83
2022-12-17T04:00:38.809Z,8.13
2022-12-17T04:05:58.979Z,8.03
2022-12-17T04:11:19.201Z,7.47
2022-12-17T04:16:39.396Z,8.03
2022-12-17T04:21:59.550Z,7.83
2022-12-17T04:27:19.687Z,7.07
2022-12-17T04:32:39.744Z,7.63
2022-12-17T04:37:59.775Z,7.27
2022-12-17T04:43:19.868Z,7.47
2022-12-17T04:48:40.757Z,7.70
2022-12-17T04:54:00.781Z,6.90
2022-12-17T04:59:20.899Z,7.30
2022-12-17T05:04:40.896Z,7.50
2022-12-17T05:10:01.153Z,7.27
2022-12-17T05:15:21.312Z,7.20
2022-12-17T05:20:41.420Z,6.87
2022-12-17T05:26:01.400Z,5.80
2022-12-17T05:31:21.692Z,7.40
2022-12-17T05:36:41.787Z,7.00
2022-12-17T05:42:01.880Z,7.07
2022-12-17T05:47:21.904Z,6.43
2022-12-17T05:52:42.405Z,6.80
2022-12-17T05:58:02.519Z,6.60
2022-12-17T06:03:22.765Z,6.80
2022-12-17T06:08:42.725Z,6.43
2022-12-17T06:14:02.959Z,6.60
2022-12-17T06:19:23.186Z,6.27
2022-12-17T06:24:46.075Z,6.17
2022-12-17T06:30:06.451Z,5.70
2022-12-17T06:35:26.716Z,6.30
2022-12-17T06:40:46.869Z,7.30
2022-12-17T06:46:07.025Z,6.93
2022-12-17T06:51:27.182Z,7.10
2022-12-17T06:56:47.406Z,6.70
2022-12-17T07:02:07.642Z,6.70
2022-12-17T07:07:27.779Z,6.63
2022-12-17T07:12:47.853Z,7.27
2022-12-17T07:18:08.159Z,6.40
2022-12-17T07:23:28.285Z,5.70
2022-12-17T07:28:48.534Z,6.03
2022-12-17T07:34:08.559Z,5.23
2022-12-17T07:39:28.662Z,6.30
2022-12-17T07:44:48.822Z,5.67
2022-12-17T07:50:08.933Z,5.83
2022-12-17T07:55:29.016Z,4.93
2022-12-17T08:00:49.630Z,6.03
2022-12-17T08:06:09.811Z,6.50
2022-12-17T08:11:30.069Z,6.77
2022-12-17T08:16:50.193Z,5.50
2022-12-17T08:22:10.412Z,5.43
2022-12-17T08:27:30.534Z,6.17
2022-12-17T08:32:50.780Z,5.90
2022-12-17T08:38:10.870Z,6.53
2022-12-17T08:43:31.138Z,5.63
2022-12-17T08:48:51.274Z,5.77
2022-12-17T08:54:11.510Z,5.57
2022-12-17T08:59:31.578Z,6.03
2022-12-17T09:04:51.688Z,6.53
2022-12-17T09:10:11.838Z,6.23
2022-12-17T09:15:31.955Z,6.17
2022-12-17T09:20:52.210Z,6.00
2022-12-17T09:26:12.359Z,5.80
2022-12-17T09:31:37.318Z,5.87
2022-12-17T09:36:57.963Z,5.03
2022-12-17T09:42:18.206Z,6.60
2022-12-17T09:47:38.357Z,5.67
2022-12-17T09:52:58.446Z,5.90
2022-12-17T09:58:18.608Z,6.30
2022-12-17T10:03:39.199Z,5.73
2022-12-17T10:08:59.482Z,5.63
2022-12-17T10:14:19.492Z,5.07
2022-12-17T10:19:42.783Z,5.20
2022-12-17T10:25:02.965Z,5.70
2022-12-17T10:30:23.091Z,5.07
2022-12-17T10:35:43.417Z,5.67
2022-12-17T10:41:03.442Z,5.10
2022-12-17T10:46:23.559Z,5.03
2022-12-17T10:51:44.025Z,5.90
2022-12-17T10:57:04.178Z,5.30
2022-12-17T11:02:24.566Z,5.20
2022-12-17T11:07:44.479Z,5.90
2022-12-17T11:13:04.652Z,5.70
2022-12-17T11:18:24.922Z,5.23
2022-12-17T11:23:44.968Z,4.93
2022-12-17T11:29:05.100Z,4.90
2022-12-17T11:34:25.286Z,4.70
2022-12-17T11:39:45.361Z,5.30
2022-12-17T11:45:05.536Z,4.80
2022-12-17T11:50:25.719Z,5.10
2022-12-17T11:55:46.019Z,5.20
2022-12-17T12:01:06.147Z,4.90
2022-12-17T12:06:27.064Z,5.20
2022-12-17T12:11:47.234Z,5.13
2022-12-17T12:17:07.446Z,5.23
2022-12-17T12:22:30.775Z,4.47
2022-12-17T12:27:51.313Z,5.40
2022-12-17T12:33:11.537Z,5.67
2022-12-17T12:38:31.637Z,5.63
2022-12-17T12:43:52.012Z,5.20
2022-12-17T12:49:12.108Z,4.77
2022-12-17T12:54:32.477Z,4.50
2022-12-17T12:59:52.694Z,4.70
2022-12-17T13:05:12.923Z,5.30
2022-12-17T13:10:33.036Z,4.50
2022-12-17T13:15:53.239Z,4.90
2022-12-17T13:21:13.389Z,4.70
2022-12-17T13:26:33.599Z,4.20
2022-12-17T13:31:53.798Z,4.80
2022-12-17T13:37:13.856Z,5.27
2022-12-17T13:42:34.051Z,4.90
2022-12-17T13:47:54.228Z,5.33
2022-12-17T13:53:14.473Z,4.97
2022-12-17T13:58:34.965Z,4.90
2022-12-17T14:04:06.269Z,3.73
2022-12-17T14:09:26.501Z,5.03
2022-12-17T14:14:46.709Z,4.43
2022-12-17T14:20:06.733Z,4.27
2022-12-17T14:25:26.908Z,4.90
2022-12-17T14:31:24.448Z,4.33
2022-12-17T14:36:27.998Z,4.20
2022-12-17T14:41:48.021Z,4.60
2022-12-17T14:47:08.186Z,4.90
2022-12-17T14:52:28.266Z,4.70
2022-12-17T14:57:48.349Z,4.53
2022-12-17T15:03:08.686Z,4.77
2022-12-17T15:08:28.561Z,4.57
2022-12-17T15:13:54.423Z,4.23
2022-12-17T15:19:16.209Z,4.40
2022-12-17T15:24:36.275Z,4.23
2022-12-17T15:29:56.333Z,4.93
2022-12-17T15:35:16.449Z,4.60
2022-12-17T15:40:36.536Z,4.63
2022-12-17T15:45:56.886Z,4.93
2022-12-17T15:51:19.813Z,4.57
2022-12-17T15:56:40.099Z,4.57
2022-12-17T16:02:00.406Z,4.40
2022-12-17T16:07:20.379Z,4.00
2022-12-17T16:12:40.426Z,3.77
2022-12-17T16:18:00.521Z,4.67
2022-12-17T16:23:20.690Z,4.23
2022-12-17T16:28:41.202Z,4.70
2022-12-17T16:34:01.190Z,4.77
2022-12-17T16:39:21.360Z,4.13
2022-12-17T16:44:41.510Z,4.43
2022-12-17T16:50:01.807Z,4.67
2022-12-17T16:55:21.821Z,4.63
2022-12-17T17:00:41.875Z,4.67
2022-12-17T17:06:02.036Z,4.90
2022-12-17T17:11:22.229Z,4.43
2022-12-17T17:16:42.263Z,5.20
2022-12-17T17:22:02.535Z,4.27
2022-12-17T17:27:22.559Z,4.00
2022-12-17T17:32:42.842Z,4.73
2022-12-17T17:38:02.893Z,4.90
2022-12-17T17:43:23.068Z,5.07
2022-12-17T17:48:43.174Z,4.50
2022-12-17T17:54:03.229Z,4.50
2022-12-17T17:59:29.206Z,4.80
2022-12-17T18:04:52.829Z,4.90
2022-12-17T18:10:12.993Z,4.97
2022-12-17T18:15:33.075Z,4.60
2022-12-17T18:20:53.328Z,5.50
2022-12-17T18:26:13.411Z,5.00
2022-12-17T18:31:33.589Z,5.07
2022-12-17T18:36:53.747Z,5.30
2022-12-17T18:42:13.874Z,5.53
2022-12-17T18:47:33.963Z,5.80
2022-12-17T18:52:54.181Z,5.10
2022-12-17T18:58:14.311Z,4.70
2022-12-17T19:03:35.431Z,5.50
2022-12-17T19:08:55.570Z,5.30
2022-12-17T19:14:15.768Z,5.53
2022-12-17T19:19:35.912Z,5.20
2022-12-17T19:24:56.233Z,5.40
2022-12-17T19:30:16.372Z,4.70
2022-12-17T19:35:36.642Z,5.20
2022-12-17T19:40:57.229Z,5.40
2022-12-17T19:46:17.899Z,4.70
2022-12-17T19:51:38.315Z,5.60
2022-12-17T19:56:58.467Z,5.20
2022-12-17T20:02:18.733Z,6.37
2022-12-17T20:07:38.813Z,5.30
2022-12-17T20:12:58.971Z,5.60
2022-12-17T20:18:19.118Z,5.40
2022-12-17T20:23:39.229Z,5.50
2022-12-17T20:28:59.531Z,6.33
2022-12-17T20:34:19.531Z,5.03
2022-12-17T20:39:39.770Z,5.90
2022-12-17T20:44:59.814Z,5.50
2022-12-17T20:50:19.942Z,4.77
2022-12-17T20:55:41.385Z,6.03
2022-12-17T21:01:01.583Z,5.90
2022-12-17T21:06:21.627Z,5.90
2022-12-17T21:11:41.883Z,6.17
2022-12-17T21:17:02.101Z,6.67
2022-12-17T21:22:24.703Z,5.80
2022-12-17T21:27:44.851Z,5.30
2022-12-17T21:33:05.065Z,6.10
2022-12-17T21:38:25.218Z,5.63
2022-12-17T21:43:45.592Z,5.50
2022-12-17T21:49:05.668Z,6.23
2022-12-17T21:54:25.743Z,6.33
2022-12-17T21:59:45.807Z,5.60
2022-12-17T22:05:06.127Z,5.93
2022-12-17T22:10:47.200Z,5.67
2022-12-17T22:16:07.398Z,5.57
2022-12-17T22:21:27.369Z,5.00
2022-12-17T22:26:47.378Z,5.83
2022-12-17T22:32:07.627Z,6.20
2022-12-17T22:40:25.329Z,5.70
2022-12-17T22:44:38.490Z,5.27
2022-12-17T22:48:48.076Z,5.20
2022-12-17T22:54:08.183Z,5.67
2022-12-17T22:59:28.466Z,5.70
2022-12-17T23:04:48.585Z,6.00
2022-12-17T23:10:08.871Z,5.50
2022-12-17T23:15:29.052Z,6.33
2022-12-17T23:20:49.222Z,5.87
2022-12-17T23:26:09.317Z,5.77
2022-12-17T23:31:29.546Z,5.07
2022-12-17T23:36:49.489Z,5.73
2022-12-17T23:42:09.743Z,5.50
2022-12-17T23:47:29.897Z,7.03
2022-12-17T23:52:50.122Z,5.40
2022-12-17T23:58:10.252Z,5.57
